createdAt,value
2022-08-17T00:00:34.461Z,6.83
2022-08-17T00:03:10.000Z,4.57
2022-08-17T00:05:41.400Z,3.83
2022-08-17T00:08:10.036Z,3.77
2022-08-17T00:10:38.485Z,3.37
2022-08-17T00:13:08.732Z,7.50
2022-08-17T00:15:38.170Z,4.47
2022-08-17T00:19:01.244Z,5.80
2022-08-17T00:20:54.298Z,6.33
2022-08-17T00:23:23.028Z,5.27
2022-08-17T00:25:51.009Z,5.07
2022-08-17T00:28:20.940Z,4.73
2022-08-17T00:30:53.540Z,3.93
2022-08-17T00:33:24.560Z,3.13
2022-08-17T00:35:53.484Z,3.43
2022-08-17T00:38:21.882Z,4.20
2022-08-17T00:40:52.306Z,3.77
2022-08-17T00:43:31.985Z,6.00
2022-08-17T00:46:03.780Z,4.40
2022-08-17T00:48:32.763Z,3.57
2022-08-17T00:51:08.155Z,3.40
2022-08-17T00:53:40.171Z,3.60
2022-08-17T00:56:12.857Z,3.80
2022-08-17T00:58:41.764Z,5.63
2022-08-17T01:01:13.349Z,3.30
2022-08-17T01:03:51.266Z,4.50
2022-08-17T01:06:19.293Z,4.87
2022-08-17T01:08:47.260Z,3.50
2022-08-17T01:11:15.319Z,3.70
2022-08-17T01:13:45.342Z,4.30
2022-08-17T01:16:17.154Z,4.17
2022-08-17T01:18:47.087Z,3.80
2022-08-17T01:21:23.278Z,3.30
2022-08-17T01:23:52.502Z,3.87
2022-08-17T01:26:21.004Z,5.10
2022-08-17T01:28:54.242Z,3.10
2022-08-17T01:31:24.691Z,3.63
2022-08-17T01:33:53.212Z,3.17
2022-08-17T01:36:21.319Z,3.27
2022-08-17T01:38:49.062Z,4.53
2022-08-17T01:41:18.449Z,4.10
2022-08-17T01:43:49.059Z,3.33
2022-08-17T01:46:22.365Z,4.93
2022-08-17T01:48:51.351Z,3.77
2022-08-17T01:51:19.778Z,3.37
2022-08-17T01:53:52.501Z,4.90
2022-08-17T01:56:24.352Z,2.83
2022-08-17T01:58:52.763Z,6.77
2022-08-17T02:01:26.410Z,3.40
2022-08-17T02:04:00.986Z,3.83
2022-08-17T02:06:44.956Z,6.27
2022-08-17T02:09:19.790Z,4.47
2022-08-17T02:11:52.790Z,5.50
2022-08-17T02:14:22.103Z,4.23
2022-08-17T02:16:50.365Z,4.63
2022-08-17T02:19:18.949Z,3.50
2022-08-17T02:21:49.362Z,4.97
2022-08-17T02:24:59.440Z,3.47
2022-08-17T02:27:12.457Z,4.23
2022-08-17T02:29:40.515Z,6.10
2022-08-17T02:32:25.344Z,4.17
2022-08-17T02:34:56.762Z,4.33
2022-08-17T02:37:25.004Z,3.87
2022-08-17T02:39:53.250Z,4.33
2022-08-17T02:42:26.128Z,5.47
2022-08-17T02:44:54.021Z,3.57
2022-08-17T02:47:21.826Z,4.03
2022-08-17T02:49:54.486Z,6.57
2022-08-17T02:52:42.496Z,4.93
2022-08-17T02:55:14.249Z,3.70
2022-08-17T02:57:43.824Z,4.93
2022-08-17T03:00:19.581Z,3.83
2022-08-17T03:02:47.966Z,3.93
2022-08-17T03:05:18.964Z,3.63
2022-08-17T03:07:46.828Z,3.57
2022-08-17T03:10:15.422Z,3.87
2022-08-17T03:12:45.659Z,4.53
2022-08-17T03:15:16.622Z,3.30
2022-08-17T03:17:44.887Z,4.90
2022-08-17T03:20:14.280Z,4.87
2022-08-17T03:22:53.045Z,3.30
2022-08-17T03:25:24.035Z,4.87
2022-08-17T03:27:53.665Z,4.00
2022-08-17T03:30:22.458Z,4.40
2022-08-17T03:32:52.098Z,3.90
2022-08-17T03:35:23.467Z,3.87
2022-08-17T03:38:00.109Z,3.80
2022-08-17T03:40:58.877Z,4.53
2022-08-17T03:43:23.983Z,4.50
2022-08-17T03:46:26.917Z,4.00
2022-08-17T03:49:14.913Z,4.80
2022-08-17T03:52:00.356Z,4.97
2022-08-17T03:54:45.708Z,3.97
2022-08-17T03:57:14.131Z,4.10
2022-08-17T03:59:43.360Z,4.60
2022-08-17T04:02:17.398Z,8.53
2022-08-17T04:04:45.667Z,3.27
2022-08-17T04:07:13.682Z,6.80
2022-08-17T04:09:42.840Z,4.23
2022-08-17T04:12:10.733Z,4.27
2022-08-17T04:14:51.487Z,5.37
2022-08-17T04:17:24.442Z,4.43
2022-08-17T04:19:52.907Z,3.37
2022-08-17T04:22:33.039Z,3.53
2022-08-17T04:25:05.132Z,3.87
2022-08-17T04:27:33.081Z,4.93
2022-08-17T04:30:01.814Z,4.63
2022-08-17T04:33:02.298Z,3.80
2022-08-17T04:35:20.937Z,3.43
2022-08-17T04:37:48.912Z,3.33
2022-08-17T04:40:35.444Z,3.83
2022-08-17T04:43:05.460Z,3.20
2022-08-17T04:45:33.396Z,4.20
2022-08-17T04:48:03.220Z,5.23
2022-08-17T04:50:31.068Z,3.27
2022-08-17T04:52:59.321Z,4.53
2022-08-17T04:55:27.475Z,5.73
2022-08-17T04:57:55.340Z,4.90
2022-08-17T05:00:25.654Z,4.00
2022-08-17T05:02:55.611Z,4.50
2022-08-17T05:05:27.889Z,3.73
2022-08-17T05:07:57.452Z,4.83
2022-08-17T05:10:27.328Z,3.80
2022-08-17T05:13:00.160Z,5.87
2022-08-17T05:15:33.211Z,4.27
2022-08-17T05:18:04.012Z,2.87
2022-08-17T05:20:33.940Z,4.87
2022-08-17T05:23:07.008Z,3.20
2022-08-17T05:25:41.245Z,3.83
2022-08-17T05:28:10.761Z,3.10
2022-08-17T05:30:40.225Z,4.43
2022-08-17T05:33:11.777Z,5.60
2022-08-17T05:35:44.313Z,2.80
2022-08-17T05:38:12.443Z,3.30
2022-08-17T05:40:41.348Z,5.10
2022-08-17T05:43:11.240Z,3.67
2022-08-17T05:45:55.373Z,4.37
2022-08-17T05:48:35.281Z,4.67
2022-08-17T05:51:22.033Z,2.97
2022-08-17T05:53:59.437Z,3.20
2022-08-17T05:56:46.529Z,2.40
2022-08-17T05:59:24.856Z,2.93
2022-08-17T06:02:02.979Z,3.70
2022-08-17T06:04:42.861Z,3.60
2022-08-17T06:07:19.502Z,2.23
2022-08-17T06:09:52.599Z,1.77
2022-08-17T06:12:35.169Z,6.37
2022-08-17T06:15:17.107Z,3.50
2022-08-17T06:17:45.272Z,3.30
2022-08-17T06:20:16.103Z,2.60
2022-08-17T06:22:49.164Z,3.33
2022-08-17T06:25:20.456Z,2.50
2022-08-17T06:28:00.140Z,2.87
2022-08-17T06:30:57.447Z,2.30
2022-08-17T06:33:23.731Z,2.47
2022-08-17T06:36:02.626Z,2.43
2022-08-17T06:38:49.853Z,1.93
2022-08-17T06:41:24.257Z,2.77
2022-08-17T06:44:10.901Z,1.93
2022-08-17T06:46:42.388Z,2.63
2022-08-17T06:49:18.214Z,4.40
2022-08-17T06:51:51.693Z,2.13
2022-08-17T06:54:31.129Z,3.93
2022-08-17T06:57:06.620Z,2.77
2022-08-17T06:59:55.755Z,4.93
2022-08-17T07:03:02.434Z,2.47
2022-08-17T07:05:29.229Z,2.23
2022-08-17T07:08:03.015Z,2.47
2022-08-17T07:10:37.500Z,3.60
2022-08-17T07:13:22.549Z,3.93
2022-08-17T07:15:56.493Z,4.97
2022-08-17T07:18:27.913Z,5.22
2022-08-17T07:21:00.816Z,5.20
2022-08-17T07:23:40.073Z,3.28
2022-08-17T07:26:13.156Z,3.42
2022-08-17T07:28:41.217Z,3.30
2022-08-17T07:31:13.252Z,5.18
2022-08-17T07:33:41.306Z,4.57
2022-08-17T07:36:29.823Z,4.00
2022-08-17T07:38:59.083Z,3.70
2022-08-17T07:41:53.104Z,6.63
2022-08-17T07:44:17.782Z,3.83
2022-08-17T07:47:08.804Z,4.72
2022-08-17T07:49:39.253Z,3.67
2022-08-17T07:52:24.273Z,4.10
2022-08-17T07:54:57.578Z,5.93
2022-08-17T07:57:32.815Z,5.07
2022-08-17T08:00:27.281Z,9.07
2022-08-17T08:03:26.196Z,3.80
2022-08-17T08:06:00.148Z,6.35
2022-08-17T08:08:31.966Z,5.53
2022-08-17T08:11:04.117Z,7.63
2022-08-17T08:13:33.610Z,5.03
2022-08-17T08:16:23.821Z,4.15
2022-08-17T08:18:56.886Z,5.28
2022-08-17T08:21:34.312Z,4.85
2022-08-17T08:24:20.649Z,3.83
2022-08-17T08:26:57.615Z,6.95
2022-08-17T08:29:37.885Z,7.30
2022-08-17T08:32:12.764Z,7.05
2022-08-17T08:35:01.113Z,5.07
2022-08-17T08:37:43.541Z,4.38
2022-08-17T08:40:29.787Z,4.32
2022-08-17T08:43:06.944Z,6.30
2022-08-17T08:45:44.484Z,4.53
2022-08-17T08:48:53.226Z,6.05
2022-08-17T08:51:22.130Z,4.55
2022-08-17T08:53:58.549Z,6.10
2022-08-17T08:56:35.136Z,7.43
2022-08-17T08:59:08.687Z,5.93
2022-08-17T09:01:46.034Z,7.80
2022-08-17T09:04:44.906Z,7.50
2022-08-17T09:07:33.590Z,6.30
2022-08-17T09:10:09.467Z,5.38
2022-08-17T09:12:47.527Z,6.25
2022-08-17T09:15:20.813Z,5.63
2022-08-17T09:18:21.288Z,7.53
2022-08-17T09:20:50.639Z,4.80
2022-08-17T09:23:30.888Z,5.63
2022-08-17T09:26:01.726Z,5.77
2022-08-17T09:28:35.004Z,5.70
2022-08-17T09:31:08.144Z,5.17
2022-08-17T09:33:43.587Z,5.00
2022-08-17T09:36:19.037Z,4.53
2022-08-17T09:38:58.289Z,7.30
2022-08-17T09:41:33.204Z,7.37
2022-08-17T09:44:09.533Z,5.15
2022-08-17T09:46:54.481Z,4.53
2022-08-17T09:49:31.785Z,8.38
2022-08-17T09:52:04.246Z,8.30
2022-08-17T09:54:39.049Z,7.37
2022-08-17T09:57:31.341Z,6.37
2022-08-17T10:00:13.713Z,8.37
2022-08-17T10:03:00.679Z,5.23
2022-08-17T10:05:37.439Z,8.37
2022-08-17T10:08:12.317Z,7.20
2022-08-17T10:10:52.480Z,7.57
2022-08-17T10:13:35.330Z,4.83
2022-08-17T10:16:08.729Z,6.47
2022-08-17T10:18:51.758Z,7.20
2022-08-17T10:21:39.172Z,6.30
2022-08-17T10:24:28.548Z,7.23
2022-08-17T10:27:01.077Z,6.40
2022-08-17T10:29:47.408Z,6.10
2022-08-17T10:32:26.651Z,6.57
2022-08-17T10:35:03.667Z,9.13
2022-08-17T10:37:50.943Z,8.07
2022-08-17T10:40:35.283Z,7.07
2022-08-17T10:43:14.528Z,9.67
2022-08-17T10:46:17.105Z,7.30
2022-08-17T10:48:40.544Z,9.10
2022-08-17T10:51:12.469Z,5.63
2022-08-17T10:53:55.717Z,6.67
2022-08-17T10:56:45.556Z,7.80
2022-08-17T10:59:51.485Z,8.33
2022-08-17T11:02:26.146Z,7.03
2022-08-17T11:05:10.276Z,7.37
2022-08-17T11:07:58.726Z,7.70
2022-08-17T11:10:49.919Z,7.60
2022-08-17T11:13:33.066Z,9.20
2022-08-17T11:16:18.428Z,9.55
2022-08-17T11:19:18.357Z,7.32
2022-08-17T11:22:33.564Z,6.32
2022-08-17T11:25:15.437Z,8.68
2022-08-17T11:27:45.067Z,7.15
2022-08-17T11:30:16.018Z,9.27
2022-08-17T11:32:54.773Z,6.90
2022-08-17T11:35:35.061Z,7.82
2022-08-17T11:38:17.582Z,7.18
2022-08-17T11:41:14.171Z,7.35
2022-08-17T11:44:19.610Z,7.43
2022-08-17T11:47:20.445Z,6.47
2022-08-17T11:50:27.669Z,8.07
2022-08-17T11:52:55.953Z,7.85
2022-08-17T11:56:04.590Z,9.82
2022-08-17T11:58:39.425Z,9.70
2022-08-17T12:01:09.684Z,8.38
2022-08-17T12:03:55.309Z,7.65
2022-08-17T12:06:49.246Z,7.43
2022-08-17T12:09:20.791Z,9.95
2022-08-17T12:11:55.101Z,8.18
2022-08-17T12:15:09.003Z,7.68
2022-08-17T12:17:40.971Z,10.88
2022-08-17T12:20:21.435Z,10.30
2022-08-17T12:22:57.546Z,9.98
2022-08-17T12:25:32.956Z,8.18
2022-08-17T12:28:06.825Z,8.45
2022-08-17T12:30:37.304Z,9.20
2022-08-17T12:33:13.290Z,11.63
2022-08-17T12:35:59.586Z,9.77
2022-08-17T12:38:32.933Z,9.95
2022-08-17T12:41:23.271Z,8.23
2022-08-17T12:43:58.539Z,10.55
2022-08-17T12:46:26.484Z,10.13
2022-08-17T12:48:58.971Z,9.15
2022-08-17T12:51:29.261Z,10.77
2022-08-17T12:53:58.698Z,12.60
2022-08-17T12:56:26.668Z,10.63
2022-08-17T12:58:55.508Z,11.23
2022-08-17T13:01:24.973Z,9.70
2022-08-17T13:03:59.678Z,10.95
2022-08-17T13:06:32.174Z,12.00
2022-08-17T13:09:12.253Z,11.60
2022-08-17T13:11:48.757Z,10.65
2022-08-17T13:14:18.403Z,9.65
2022-08-17T13:16:52.266Z,9.77
2022-08-17T13:19:40.568Z,9.80
2022-08-17T13:22:12.338Z,11.00
2022-08-17T13:24:54.417Z,11.65
2022-08-17T13:27:24.990Z,10.85
2022-08-17T13:29:55.774Z,14.60
2022-08-17T13:32:35.791Z,10.95
2022-08-17T13:35:35.389Z,10.70
2022-08-17T13:38:10.325Z,10.65
2022-08-17T13:40:50.662Z,10.57
2022-08-17T13:43:44.498Z,12.50
2022-08-17T13:46:20.260Z,14.38
2022-08-17T13:48:59.312Z,12.57
2022-08-17T13:51:31.215Z,12.05
2022-08-17T13:54:05.919Z,14.38
2022-08-17T13:56:54.259Z,12.48
2022-08-17T13:59:53.422Z,11.43
2022-08-17T14:02:25.941Z,12.55
2022-08-17T14:04:56.684Z,11.15
2022-08-17T14:07:28.864Z,11.13
2022-08-17T14:10:00.239Z,12.15
2022-08-17T14:12:32.809Z,11.23
2022-08-17T14:15:01.106Z,11.50
2022-08-17T14:17:36.375Z,13.63
2022-08-17T14:20:07.210Z,12.52
2022-08-17T14:22:37.635Z,12.50
2022-08-17T14:25:08.657Z,12.15
2022-08-17T14:27:52.005Z,14.90
2022-08-17T14:30:23.026Z,14.27
2022-08-17T14:32:51.867Z,13.30
2022-08-17T14:35:23.086Z,14.00
2022-08-17T14:37:51.606Z,13.80
2022-08-17T14:40:22.541Z,12.70
2022-08-17T14:42:52.972Z,13.52
2022-08-17T14:45:31.752Z,14.63
2022-08-17T14:48:01.951Z,15.07
2022-08-17T14:50:29.809Z,15.23
2022-08-17T14:53:01.580Z,10.93
2022-08-17T14:55:29.633Z,15.45
2022-08-17T14:57:58.992Z,18.45
2022-08-17T15:00:27.165Z,13.52
2022-08-17T15:02:57.866Z,17.33
2022-08-17T15:05:31.242Z,15.65
2022-08-17T15:07:59.437Z,15.98
2022-08-17T15:10:27.779Z,16.73
2022-08-17T15:12:56.097Z,13.50
2022-08-17T15:15:25.647Z,16.42
2022-08-17T15:17:53.732Z,14.50
2022-08-17T15:20:24.636Z,13.88
2022-08-17T15:22:54.986Z,16.80
2022-08-17T15:25:23.403Z,14.63
2022-08-17T15:27:51.454Z,14.82
2022-08-17T15:30:20.389Z,14.88
2022-08-17T15:32:55.258Z,16.38
2022-08-17T15:35:27.737Z,14.55
2022-08-17T15:37:57.306Z,15.23
2022-08-17T15:40:25.197Z,16.92
2022-08-17T15:42:53.125Z,14.15
2022-08-17T15:45:26.268Z,13.73
2022-08-17T15:47:55.559Z,14.68
2022-08-17T15:50:23.386Z,14.65
2022-08-17T15:52:57.627Z,13.90
2022-08-17T15:55:25.822Z,12.93
2022-08-17T15:57:53.948Z,9.88
2022-08-17T16:00:23.941Z,12.00
2022-08-17T16:03:20.362Z,11.90
2022-08-17T16:05:41.872Z,10.82
2022-08-17T16:08:10.917Z,11.55
2022-08-17T16:10:38.966Z,13.07
2022-08-17T16:13:17.989Z,11.05
2022-08-17T16:15:56.578Z,13.00
2022-08-17T16:18:28.220Z,13.07
2022-08-17T16:20:57.429Z,14.88
2022-08-17T16:23:25.592Z,11.10
2022-08-17T16:25:54.420Z,13.73
2022-08-17T16:28:35.766Z,15.65
2022-08-17T16:31:05.795Z,13.77
2022-08-17T16:33:37.297Z,14.02
2022-08-17T16:36:07.986Z,14.88
2022-08-17T16:38:36.633Z,17.40
2022-08-17T16:41:04.923Z,14.32
2022-08-17T16:43:33.103Z,13.90
2022-08-17T16:46:01.655Z,14.37
2022-08-17T16:48:30.534Z,16.60
2022-08-17T16:51:04.687Z,12.35
2022-08-17T16:53:34.052Z,11.00
2022-08-17T16:56:01.973Z,12.93
2022-08-17T16:58:30.070Z,13.63
2022-08-17T17:00:59.259Z,11.70
2022-08-17T17:03:29.284Z,13.13
2022-08-17T17:06:09.622Z,13.53
2022-08-17T17:08:44.882Z,11.53
2022-08-17T17:11:16.288Z,11.93
2022-08-17T17:13:49.271Z,12.53
2022-08-17T17:16:21.571Z,10.03
2022-08-17T17:19:01.579Z,11.20
2022-08-17T17:21:38.771Z,11.47
2022-08-17T17:24:16.069Z,9.77
2022-08-17T17:27:07.250Z,8.63
2022-08-17T17:29:53.413Z,9.20
2022-08-17T17:32:28.959Z,8.20
2022-08-17T17:35:04.885Z,9.27
2022-08-17T17:37:36.237Z,9.10
2022-08-17T17:40:09.476Z,8.87
2022-08-17T17:42:41.489Z,9.00
2022-08-17T17:45:17.800Z,10.23
2022-08-17T17:47:46.344Z,8.87
2022-08-17T17:50:14.568Z,7.30
2022-08-17T17:52:51.791Z,7.70
2022-08-17T17:55:45.610Z,6.83
2022-08-17T17:58:26.301Z,6.23
2022-08-17T18:01:07.233Z,7.37
2022-08-17T18:04:00.234Z,5.67
2022-08-17T18:06:41.390Z,6.60
2022-08-17T18:09:23.129Z,6.90
2022-08-17T18:12:06.607Z,6.87
2022-08-17T18:14:50.877Z,7.43
2022-08-17T18:17:19.672Z,8.10
2022-08-17T18:19:48.398Z,6.63
2022-08-17T18:22:19.314Z,7.37
2022-08-17T18:24:49.542Z,5.30
2022-08-17T18:27:24.795Z,6.33
2022-08-17T18:29:54.065Z,4.63
2022-08-17T18:32:43.562Z,7.77
2022-08-17T18:35:30.443Z,5.70
2022-08-17T18:38:20.387Z,6.37
2022-08-17T18:41:02.999Z,8.57
2022-08-17T18:43:44.511Z,5.60
2022-08-17T18:46:29.728Z,5.43
2022-08-17T18:49:00.002Z,6.17
2022-08-17T18:51:42.106Z,7.00
2022-08-17T18:54:17.408Z,6.20
2022-08-17T18:56:50.690Z,6.53
2022-08-17T18:59:30.152Z,5.70
2022-08-17T19:02:38.756Z,6.53
2022-08-17T19:05:14.156Z,7.57
2022-08-17T19:07:44.240Z,5.83
2022-08-17T19:10:22.156Z,8.30
2022-08-17T19:13:00.675Z,8.10
2022-08-17T19:15:35.641Z,5.37
2022-08-17T19:18:06.727Z,5.88
2022-08-17T19:20:38.572Z,4.83
2022-08-17T19:23:25.104Z,5.70
2022-08-17T19:25:55.322Z,5.63
2022-08-17T19:28:28.894Z,9.50
2022-08-17T19:30:59.612Z,6.87
2022-08-17T19:33:27.840Z,5.17
2022-08-17T19:36:03.801Z,5.13
2022-08-17T19:38:45.714Z,6.63
2022-08-17T19:41:21.085Z,5.30
2022-08-17T19:44:03.426Z,6.93
2022-08-17T19:46:43.052Z,7.43
2022-08-17T19:49:33.225Z,7.77
2022-08-17T19:52:22.237Z,11.20
2022-08-17T19:54:57.460Z,8.67
2022-08-17T19:57:35.144Z,6.40
2022-08-17T20:00:10.378Z,8.27
2022-08-17T20:02:46.991Z,9.47
2022-08-17T20:05:18.173Z,7.57
2022-08-17T20:07:53.413Z,7.67
2022-08-17T20:10:29.427Z,9.47
2022-08-17T20:13:01.505Z,8.50
2022-08-17T20:15:32.357Z,6.23
2022-08-17T20:18:06.605Z,7.60
2022-08-17T20:20:42.642Z,10.10
2022-08-17T20:23:29.790Z,8.67
2022-08-17T20:26:06.638Z,12.13
2022-08-17T20:28:38.776Z,9.20
2022-08-17T20:31:42.672Z,11.37
2022-08-17T20:34:36.964Z,11.80
2022-08-17T20:37:08.675Z,10.00
2022-08-17T20:39:40.488Z,11.73
2022-08-17T20:42:31.922Z,12.07
2022-08-17T20:45:04.625Z,10.10
2022-08-17T20:47:35.397Z,11.67
2022-08-17T20:50:09.362Z,12.20
2022-08-17T20:52:47.821Z,8.40
2022-08-17T20:55:55.697Z,10.37
2022-08-17T20:58:47.128Z,10.90
2022-08-17T21:01:34.693Z,11.70
2022-08-17T21:04:09.015Z,10.87
2022-08-17T21:07:17.385Z,9.83
2022-08-17T21:09:46.295Z,12.17
2022-08-17T21:12:42.071Z,11.93
2022-08-17T21:15:28.424Z,10.63
2022-08-17T21:18:06.545Z,12.13
2022-08-17T21:20:44.015Z,11.53
2022-08-17T21:23:34.276Z,13.83
2022-08-17T21:26:25.549Z,11.93
2022-08-17T21:29:30.172Z,13.17
2022-08-17T21:32:24.199Z,13.70
2022-08-17T21:35:25.131Z,14.20
2022-08-17T21:37:58.182Z,15.00
2022-08-17T21:40:29.712Z,12.77
2022-08-17T21:43:02.909Z,16.57
2022-08-17T21:45:35.409Z,13.23
2022-08-17T21:48:14.908Z,13.30
2022-08-17T21:50:45.992Z,15.80
2022-08-17T21:53:25.406Z,13.10
2022-08-17T21:55:56.288Z,13.10
2022-08-17T21:58:31.448Z,13.10
2022-08-17T22:01:28.054Z,14.43
2022-08-17T22:04:00.933Z,14.33
2022-08-17T22:06:34.172Z,12.57
2022-08-17T22:09:14.643Z,15.33
2022-08-17T22:11:54.020Z,12.53
2022-08-17T22:14:26.306Z,12.63
2022-08-17T22:17:14.569Z,12.93
2022-08-17T22:19:44.719Z,15.23
2022-08-17T22:22:26.325Z,15.53
2022-08-17T22:24:58.445Z,14.47
2022-08-17T22:27:56.600Z,17.60
2022-08-17T22:30:32.277Z,18.67
2022-08-17T22:33:01.488Z,15.27
2022-08-17T22:35:40.486Z,16.10
2022-08-17T22:38:33.935Z,15.67
2022-08-17T22:41:35.070Z,19.40
2022-08-17T22:44:14.980Z,17.60
2022-08-17T22:47:10.741Z,16.03
2022-08-17T22:49:53.976Z,16.17
2022-08-17T22:52:34.778Z,16.27
2022-08-17T22:55:24.558Z,17.53
2022-08-17T22:58:10.479Z,17.23
2022-08-17T23:00:42.937Z,19.63
2022-08-17T23:03:19.139Z,17.20
2022-08-17T23:05:50.743Z,17.57
2022-08-17T23:08:21.254Z,16.17
2022-08-17T23:10:49.631Z,13.87
2022-08-17T23:13:17.567Z,16.00
2022-08-17T23:15:48.053Z,15.17
2022-08-17T23:18:17.471Z,18.70
2022-08-17T23:20:45.798Z,13.23
2022-08-17T23:23:15.304Z,14.27
2022-08-17T23:25:46.239Z,14.07
2022-08-17T23:28:14.328Z,13.33
2022-08-17T23:30:46.531Z,16.70
2022-08-17T23:33:19.647Z,17.03
2022-08-17T23:35:47.454Z,20.30
2022-08-17T23:38:15.757Z,18.13
2022-08-17T23:40:43.658Z,18.03
2022-08-17T23:43:24.471Z,17.13
2022-08-17T23:45:57.559Z,13.63
2022-08-17T23:48:32.548Z,16.23
2022-08-17T23:51:08.905Z,19.40
2022-08-17T23:53:38.177Z,20.30
2022-08-17T23:56:09.447Z,20.37
2022-08-17T23:58:38.706Z,19.37
